Time;durP1;ratioP1;P1;durP2;ratioP2;P2;SDS_P1;SDS_P2;PMS_P1;PMS_P2;Temp;Humidity;BMP_temperature;BMP_pressure;BME280_temperature;BME280_humidity;BME280_pressure;Samples;Min_cycle;Max_cycle;Signal;HPM_P1;HPM_P2
2023/05/04 00:03:04;;;;;;;25.83;23.05;;;22.20;55.90;;;;;;4855258;55;21447;-27
2023/05/04 00:08:05;;;;;;;28.67;23.92;;;22.20;55.90;;;;;;4857469;55;21065;-28
2023/05/04 00:13:07;;;;;;;28.17;23.95;;;22.20;56.00;;;;;;4724056;59;21081;-24
2023/05/04 00:18:08;;;;;;;28.30;24.70;;;22.20;55.90;;;;;;4845145;55;21006;-25
2023/05/04 00:23:08;;;;;;;27.92;21.92;;;22.20;55.90;;;;;;4759574;55;21100;-32
2023/05/04 00:28:09;;;;;;;26.92;23.80;;;22.20;56.60;;;;;;4732984;55;21041;-28
2023/05/04 00:33:10;;;;;;;27.00;23.00;;;22.20;55.90;;;;;;4724116;59;21073;-24
2023/05/04 00:38:12;;;;;;;26.95;23.48;;;22.20;55.90;;;;;;4863724;55;21523;-27
2023/05/04 00:43:13;;;;;;;25.62;22.70;;;22.10;55.90;;;;;;4815980;55;21573;-35
2023/05/04 00:48:14;;;;;;;26.40;22.80;;;22.20;55.90;;;;;;4761310;55;21009;-32
2023/05/04 00:53:15;;;;;;;27.48;22.85;;;22.20;55.90;;;;;;4737536;55;21065;-25
2023/05/04 00:58:16;;;;;;;26.25;21.42;;;22.20;56.00;;;;;;4803263;55;21061;-25
2023/05/04 01:03:18;;;;;;;26.55;22.90;;;22.20;56.00;;;;;;4786370;55;21016;-26
2023/05/04 01:08:23;;;;;;;25.77;22.77;;;22.20;56.00;;;;;;4777463;55;21014;-24
2023/05/04 01:13:26;;;;;;;23.48;21.00;;;22.20;56.00;;;;;;4724490;59;21050;-27
2023/05/04 01:18:27;;;;;;;27.58;23.30;;;22.20;56.00;;;;;;4749928;55;21069;-26
2023/05/04 01:23:28;;;;;;;26.25;22.15;;;22.20;56.00;;;;;;4796616;55;21507;-25
2023/05/04 01:28:40;;;;;;;26.12;22.23;;;22.20;56.70;;;;;;4732748;55;21035;-29
2023/05/04 01:33:43;;;;;;;23.80;20.85;;;22.20;56.00;;;;;;4808366;55;21140;-30
2023/05/04 01:38:47;;;;;;;23.77;19.75;;;22.20;56.00;;;;;;4737127;55;21390;-38
2023/05/04 01:43:48;;;;;;;28.00;21.95;;;22.20;56.10;;;;;;4770001;55;21719;-39
2023/05/04 01:48:52;;;;;;;25.60;20.85;;;22.20;56.10;;;;;;4724971;55;21105;-40
2023/05/04 01:53:53;;;;;;;23.90;21.30;;;22.20;56.10;;;;;;4757427;55;21017;-27
2023/05/04 01:58:54;;;;;;;24.23;20.98;;;22.20;56.10;;;;;;4723480;59;21033;-25
2023/05/04 02:03:54;;;;;;;25.52;21.83;;;22.20;56.10;;;;;;4784274;55;21088;-26
2023/05/04 02:08:55;;;;;;;24.45;21.30;;;22.20;56.20;;;;;;4760976;55;21117;-24
2023/05/04 02:13:56;;;;;;;25.00;21.25;;;22.20;56.10;;;;;;4809866;55;21037;-34
2023/05/04 02:18:57;;;;;;;24.08;20.40;;;22.20;56.10;;;;;;4759848;55;21703;-28
2023/05/04 02:23:58;;;;;;;23.40;20.88;;;22.20;56.10;;;;;;4815444;55;21105;-27
2023/05/04 02:28:59;;;;;;;22.23;19.83;;;22.20;56.10;;;;;;4917507;55;21551;-31
2023/05/04 02:34:00;;;;;;;23.30;20.00;;;22.20;56.70;;;;;;4732233;55;21092;-25
2023/05/04 02:39:01;;;;;;;23.38;20.27;;;22.20;56.10;;;;;;4739188;55;21610;-28
2023/05/04 02:44:05;;;;;;;22.45;19.58;;;22.10;56.10;;;;;;4724214;59;21021;-26
2023/05/04 02:49:06;;;;;;;23.00;20.12;;;22.20;56.10;;;;;;4833154;55;21535;-37
2023/05/04 02:54:07;;;;;;;21.62;18.42;;;22.20;56.40;;;;;;4748233;55;21547;-28
2023/05/04 02:59:08;;;;;;;23.30;18.77;;;22.20;56.20;;;;;;4776056;55;21041;-32
2023/05/04 03:04:09;;;;;;;20.80;18.23;;;22.20;56.10;;;;;;4735392;55;21551;-30
2023/05/04 03:09:11;;;;;;;22.08;18.42;;;22.20;56.20;;;;;;4739525;55;21149;-27
2023/05/04 03:14:12;;;;;;;22.30;18.73;;;22.10;56.10;;;;;;4886699;55;21568;-25
2023/05/04 03:19:13;;;;;;;22.23;19.35;;;22.20;56.20;;;;;;4749637;55;21045;-34
2023/05/04 03:24:16;;;;;;;21.45;19.10;;;22.10;56.20;;;;;;4816076;55;21077;-28
2023/05/04 03:29:17;;;;;;;22.33;19.20;;;22.20;56.20;;;;;;4765556;55;21557;-23
2023/05/04 03:34:20;;;;;;;21.42;18.37;;;22.10;56.20;;;;;;4724033;59;21103;-35
2023/05/04 03:39:21;;;;;;;23.00;19.05;;;22.10;56.20;;;;;;4774217;55;21575;-37
2023/05/04 03:44:22;;;;;;;23.65;18.70;;;22.10;56.20;;;;;;4771497;55;21129;-37
2023/05/04 03:49:22;;;;;;;20.90;17.20;;;22.10;56.20;;;;;;4828982;55;21543;-25
2023/05/04 03:54:25;;;;;;;21.92;18.58;;;22.10;56.20;;;;;;4806046;55;21033;-28
2023/05/04 03:59:26;;;;;;;20.45;18.25;;;22.10;56.20;;;;;;4741188;55;21566;-28
2023/05/04 04:04:26;;;;;;;20.35;17.60;;;22.10;56.20;;;;;;4737338;55;21073;-26
2023/05/04 04:09:27;;;;;;;21.60;17.67;;;22.10;56.30;;;;;;4730811;55;21097;-25
2023/05/04 04:14:28;;;;;;;20.45;17.40;;;22.10;57.00;;;;;;4951850;55;21073;-32
2023/05/04 04:19:29;;;;;;;20.37;18.02;;;22.10;56.40;;;;;;4729400;55;21092;-36
2023/05/04 04:24:32;;;;;;;21.42;17.73;;;22.10;56.50;;;;;;4799715;55;21520;-26
2023/05/04 04:29:34;;;;;;;21.20;17.75;;;22.10;56.60;;;;;;4724471;59;21575;-26
2023/05/04 04:34:39;;;;;;;20.23;16.70;;;22.10;56.50;;;;;;4724350;59;21006;-36
2023/05/04 04:39:41;;;;;;;20.30;17.40;;;22.10;56.50;;;;;;4723378;59;21061;-36
2023/05/04 04:44:41;;;;;;;18.15;16.23;;;22.10;56.70;;;;;;4766788;55;21491;-26
2023/05/04 04:49:43;;;;;;;20.00;17.48;;;22.10;56.70;;;;;;4732822;55;21009;-27
2023/05/04 04:54:44;;;;;;;19.25;16.73;;;22.10;56.70;;;;;;4819722;55;21539;-24
2023/05/04 04:59:45;;;;;;;18.83;16.65;;;22.10;56.60;;;;;;4822824;55;21072;-24
2023/05/04 05:04:46;;;;;;;19.50;17.40;;;22.10;56.80;;;;;;4724198;59;21113;-38
2023/05/04 05:09:46;;;;;;;18.10;16.12;;;22.10;56.70;;;;;;4819767;55;21183;-32
2023/05/04 05:14:49;;;;;;;20.62;17.05;;;22.10;56.70;;;;;;4728348;55;21081;-28
2023/05/04 05:19:50;;;;;;;18.92;16.58;;;22.10;56.70;;;;;;4766765;55;21546;-41
2023/05/04 05:24:51;;;;;;;21.23;16.67;;;22.10;56.70;;;;;;4723891;59;21073;-27
2023/05/04 05:29:52;;;;;;;19.62;17.52;;;22.10;56.70;;;;;;4750370;55;21012;-29
2023/05/04 05:34:52;;;;;;;22.90;18.05;;;22.10;56.70;;;;;;4757154;55;21487;-30
2023/05/04 05:39:53;;;;;;;21.40;18.17;;;22.10;57.50;;;;;;4796204;55;21085;-33
2023/05/04 05:44:55;;;;;;;19.90;17.42;;;22.10;56.80;;;;;;4784050;55;21064;-42
2023/05/04 05:49:56;;;;;;;20.05;17.62;;;22.10;56.80;;;;;;4724123;59;21038;-41
2023/05/04 05:54:57;;;;;;;21.42;17.45;;;22.10;56.70;;;;;;4723797;59;21140;-33
2023/05/04 05:59:58;;;;;;;21.10;18.35;;;22.10;56.80;;;;;;4774028;55;21626;-36
2023/05/04 06:04:59;;;;;;;21.67;18.23;;;22.10;56.80;;;;;;4728438;55;21199;-29
2023/05/04 06:10:00;;;;;;;19.00;16.92;;;22.10;56.80;;;;;;4723915;59;21072;-35
2023/05/04 06:15:01;;;;;;;21.35;18.50;;;22.10;56.80;;;;;;4885057;55;21097;-29
2023/05/04 06:20:02;;;;;;;21.73;18.42;;;22.10;56.90;;;;;;4722932;55;21496;-35
2023/05/04 06:25:03;;;;;;;21.15;18.02;;;22.10;56.80;;;;;;4723614;59;21082;-32
2023/05/04 06:30:06;;;;;;;21.55;19.23;;;22.10;56.80;;;;;;4745080;55;21001;-33
2023/05/04 06:35:08;;;;;;;20.90;18.58;;;22.10;56.80;;;;;;4722030;59;21499;-28
2023/05/04 06:40:10;;;;;;;23.12;19.27;;;22.10;57.40;;;;;;4719260;56;21917;-29
2023/05/04 06:45:11;;;;;;;25.00;20.02;;;22.10;56.80;;;;;;4724004;55;21598;-23
2023/05/04 06:50:13;;;;;;;24.30;18.55;;;22.10;56.90;;;;;;4732021;55;21096;-24
2023/05/04 06:55:14;;;;;;;23.20;18.65;;;22.10;56.80;;;;;;4723879;59;21583;-25
2023/05/04 07:00:15;;;;;;;22.98;20.08;;;22.10;56.80;;;;;;4879566;55;21080;-30
2023/05/04 07:05:16;;;;;;;24.83;20.15;;;22.10;56.80;;;;;;4771671;55;21662;-28
2023/05/04 07:10:18;;;;;;;22.05;19.20;;;22.10;56.80;;;;;;4760913;55;21029;-28
2023/05/04 07:15:19;;;;;;;23.87;19.98;;;22.10;56.80;;;;;;4754932;55;21503;-36
2023/05/04 07:20:20;;;;;;;21.35;19.05;;;22.10;56.80;;;;;;4897086;55;21515;-37
2023/05/04 07:25:23;;;;;;;23.38;19.90;;;22.10;56.80;;;;;;4757995;55;21069;-24
2023/05/04 07:30:24;;;;;;;22.55;19.92;;;22.10;57.40;;;;;;4723137;59;21055;-28
2023/05/04 07:35:25;;;;;;;25.30;21.35;;;22.10;56.80;;;;;;4735402;55;21956;-29
2023/05/04 07:40:26;;;;;;;24.08;21.48;;;22.10;57.40;;;;;;4724098;59;21500;-29
2023/05/04 07:45:27;;;;;;;24.05;19.95;;;22.10;56.80;;;;;;4748030;55;21017;-32
2023/05/04 07:50:28;;;;;;;23.50;20.58;;;22.10;56.80;;;;;;4744505;55;21551;-27
2023/05/04 07:55:30;;;;;;;24.23;21.60;;;22.10;56.90;;;;;;4724081;56;21467;-32
2023/05/04 08:00:31;;;;;;;25.00;21.62;;;22.10;56.80;;;;;;4738088;55;21444;-38
2023/05/04 08:05:32;;;;;;;23.42;19.98;;;22.10;56.80;;;;;;4736437;55;21049;-27
2023/05/04 08:10:36;;;;;;;26.20;22.45;;;22.10;56.80;;;;;;4820467;55;21037;-29
2023/05/04 08:15:36;;;;;;;25.90;21.05;;;22.10;56.80;;;;;;4742174;55;21013;-27
2023/05/04 08:20:38;;;;;;;26.92;22.73;;;22.10;56.80;;;;;;4738182;55;21547;-28
2023/05/04 08:25:39;;;;;;;26.05;22.75;;;22.10;56.80;;;;;;4786639;55;21567;-43
2023/05/04 08:30:40;;;;;;;27.10;23.17;;;22.10;56.80;;;;;;4784534;55;21045;-31
2023/05/04 08:35:40;;;;;;;26.83;22.35;;;22.10;56.80;;;;;;4724308;59;21010;-39
2023/05/04 08:40:43;;;;;;;26.70;22.62;;;22.10;56.80;;;;;;4776611;55;21491;-25
2023/05/04 08:45:44;;;;;;;26.62;23.83;;;22.10;56.90;;;;;;4732456;55;21009;-28
2023/05/04 08:50:45;;;;;;;26.60;22.58;;;22.10;56.80;;;;;;4746056;55;21017;-25
2023/05/04 08:55:48;;;;;;;27.62;23.92;;;22.20;56.80;;;;;;4723945;59;21009;-27
2023/05/04 09:00:49;;;;;;;30.17;24.63;;;22.10;56.80;;;;;;4724239;56;21064;-37
2023/05/04 09:05:51;;;;;;;27.50;23.67;;;22.10;56.80;;;;;;4724444;59;21017;-39
2023/05/04 09:10:52;;;;;;;29.02;24.52;;;22.10;56.80;;;;;;4802646;55;21592;-35
2023/05/04 09:15:59;;;;;;;27.70;24.67;;;22.10;56.80;;;;;;4764528;55;21136;-27
2023/05/04 09:21:00;;;;;;;27.75;23.62;;;22.10;56.30;;;;;;4795733;55;21051;-30
2023/05/04 09:26:01;;;;;;;26.85;23.98;;;22.10;56.80;;;;;;4734055;55;21520;-33
2023/05/04 09:31:02;;;;;;;29.95;24.55;;;22.10;56.70;;;;;;4724314;59;21535;-27
2023/05/04 09:36:19;;;;;;;28.15;24.27;;;22.10;56.80;;;;;;4771905;55;21531;-28
2023/05/04 09:41:32;;;;;;;28.65;25.00;;;22.10;56.70;;;;;;4728569;55;21484;-34
2023/05/04 09:46:33;;;;;;;29.45;25.55;;;22.10;56.70;;;;;;4736332;55;21488;-29
2023/05/04 09:51:34;;;;;;;27.25;24.35;;;22.10;56.80;;;;;;4732825;55;22551;-26
2023/05/04 09:56:47;;;;;;;30.58;25.52;;;22.10;56.70;;;;;;4796281;55;21121;-24
2023/05/04 10:01:49;;;;;;;29.87;26.00;;;22.10;58.30;;;;;;4732197;55;21503;-22
2023/05/04 10:06:51;;;;;;;29.48;25.67;;;22.20;57.20;;;;;;4727422;55;21017;-22
2023/05/04 10:11:52;;;;;;;33.30;26.77;;;22.20;57.20;;;;;;4721925;55;21575;-22
2023/05/04 10:18:01;;;;;;;33.05;26.40;;;22.30;57.30;;;;;;4757367;55;21105;-24
2023/05/04 10:24:00;;;;;;;31.27;26.58;;;22.40;57.50;;;;;;4746017;55;21132;-25
2023/05/04 10:29:36;;;;;;;36.00;28.52;;;22.40;57.60;;;;;;4720908;59;21100;-24
2023/05/04 10:34:37;;;;;;;31.37;26.98;;;22.50;57.60;;;;;;4756590;55;21361;-26
2023/05/04 10:39:38;;;;;;;31.00;27.48;;;22.50;57.60;;;;;;4759019;55;21536;-30
2023/05/04 10:44:56;;;;;;;34.97;27.67;;;22.50;57.60;;;;;;4739077;55;21488;-27
2023/05/04 10:50:15;;;;;;;;;;;22.50;57.70;;;;;;4747278;55;21009;-31
2023/05/04 10:55:20;;;;;;;37.85;29.40;;;22.50;57.60;;;;;;4722076;59;20260;-27
2023/05/04 11:00:23;;;;;;;34.75;28.98;;;22.60;57.70;;;;;;4725186;55;21072;-28
2023/05/04 11:05:24;;;;;;;34.17;29.12;;;22.60;57.70;;;;;;4763346;55;21618;-26
2023/05/04 11:10:25;;;;;;;34.05;29.42;;;22.60;57.70;;;;;;4731328;55;21271;-25
2023/05/04 11:15:26;;;;;;;35.13;29.67;;;22.60;57.70;;;;;;4736853;55;21021;-24
2023/05/04 11:20:27;;;;;;;37.40;30.67;;;22.70;57.80;;;;;;4735765;55;22176;-24
2023/05/04 11:25:32;;;;;;;34.38;30.42;;;22.70;57.90;;;;;;4736863;55;21072;-24
2023/05/04 11:30:33;;;;;;;36.85;31.45;;;22.70;57.90;;;;;;4721842;55;21555;-22
2023/05/04 11:35:35;;;;;;;36.30;31.67;;;22.70;57.90;;;;;;4732318;55;21549;-23
2023/05/04 11:40:39;;;;;;;104.95;92.05;;;22.70;58.00;;;;;;4722945;55;21073;-26
2023/05/04 11:45:41;;;;;;;355.30;307.42;;;22.70;58.80;;;;;;4749911;55;21509;-26
2023/05/04 11:50:46;;;;;;;394.30;339.42;;;22.80;59.00;;;;;;4738595;55;21125;-26
2023/05/04 11:55:47;;;;;;;356.92;313.55;;;22.70;59.40;;;;;;4736753;55;21073;-25
2023/05/04 12:00:50;;;;;;;340.45;297.42;;;22.80;59.80;;;;;;4727255;55;21464;-22
2023/05/04 12:05:53;;;;;;;336.37;296.87;;;22.70;59.80;;;;;;4723825;55;21009;-25
2023/05/04 12:11:14;;;;;;;316.88;281.73;;;22.70;59.80;;;;;;4738751;55;21049;-23
2023/05/04 12:16:18;;;;;;;321.25;285.38;;;22.80;60.00;;;;;;4766542;55;21523;-30
2023/05/04 12:21:22;;;;;;;306.98;272.85;;;22.80;60.00;;;;;;4761745;55;21025;-33
2023/05/04 12:26:23;;;;;;;301.33;266.75;;;22.70;60.10;;;;;;4747365;55;21053;-27
2023/05/04 12:31:25;;;;;;;301.27;265.00;;;22.70;60.20;;;;;;4741144;55;21029;-26
2023/05/04 12:36:27;;;;;;;290.00;258.25;;;22.70;60.10;;;;;;4723457;59;21045;-24
2023/05/04 12:41:29;;;;;;;276.75;244.30;;;22.70;60.00;;;;;;4770662;55;21088;-25
2023/05/04 12:46:29;;;;;;;277.77;247.23;;;22.70;59.80;;;;;;4746209;55;21483;-23
2023/05/04 12:51:31;;;;;;;275.13;244.77;;;22.80;59.70;;;;;;4769696;55;21030;-23
2023/05/04 12:56:32;;;;;;;274.33;244.30;;;22.70;59.50;;;;;;4721965;59;21502;-27
2023/05/04 13:01:33;;;;;;;266.15;236.87;;;22.80;59.50;;;;;;4723340;55;21064;-24
2023/05/04 13:06:34;;;;;;;263.62;234.85;;;22.70;59.00;;;;;;4799310;55;21028;-22
2023/05/04 13:11:35;;;;;;;264.00;234.85;;;22.70;59.30;;;;;;4734874;55;21045;-24
2023/05/04 13:16:36;;;;;;;256.80;228.73;;;22.70;59.20;;;;;;4727323;55;21200;-26
2023/05/04 13:21:39;;;;;;;252.13;224.57;;;22.70;59.10;;;;;;4724001;56;21045;-22
2023/05/04 13:26:40;;;;;;;252.62;225.48;;;22.80;59.70;;;;;;4735856;55;24981;-27
2023/05/04 13:31:41;;;;;;;249.88;222.55;;;22.80;59.20;;;;;;4795023;55;21525;-30
2023/05/04 13:36:42;;;;;;;241.23;214.15;;;22.80;59.30;;;;;;4787736;55;20991;-28
2023/05/04 13:41:44;;;;;;;242.50;215.87;;;22.70;59.30;;;;;;4815051;55;21010;-27
2023/05/04 13:46:45;;;;;;;242.65;216.15;;;22.70;59.40;;;;;;4737832;55;21956;-28
2023/05/04 13:51:48;;;;;;;236.12;210.32;;;22.60;59.40;;;;;;4725703;55;21068;-24
2023/05/04 13:56:49;;;;;;;236.57;210.55;;;22.60;59.40;;;;;;4743143;55;21946;-24
2023/05/04 14:01:51;;;;;;;232.55;207.02;;;22.60;59.40;;;;;;4717873;59;21399;-25
2023/05/04 14:06:52;;;;;;;228.50;203.27;;;22.60;59.40;;;;;;4718649;59;21501;-26
2023/05/04 14:11:53;;;;;;;223.38;198.90;;;22.50;59.40;;;;;;4717962;59;21031;-30
2023/05/04 14:16:54;;;;;;;226.02;197.65;;;22.50;59.30;;;;;;4743009;55;21636;-28
2023/05/04 14:21:55;;;;;;;220.20;191.15;;;22.50;59.30;;;;;;4746921;55;21091;-28
2023/05/04 14:26:56;;;;;;;205.77;180.52;;;22.50;59.30;;;;;;4797635;55;21404;-31
2023/05/04 14:31:56;;;;;;;206.90;182.57;;;22.50;59.30;;;;;;4768489;55;21431;-24
2023/05/04 14:36:57;;;;;;;210.40;184.70;;;22.50;59.30;;;;;;4773997;55;21038;-27
2023/05/04 14:41:58;;;;;;;217.18;189.93;;;22.50;59.30;;;;;;4718256;59;21098;-25
2023/05/04 14:47:01;;;;;;;204.18;178.85;;;22.50;59.30;;;;;;4718349;59;21759;-28
2023/05/04 14:52:02;;;;;;;203.82;178.48;;;22.50;59.20;;;;;;4734033;55;21039;-36
2023/05/04 14:57:03;;;;;;;202.57;178.65;;;22.50;59.40;;;;;;4717818;56;21019;-25
2023/05/04 15:02:05;;;;;;;191.65;168.52;;;22.40;59.20;;;;;;4722660;55;21550;-27
2023/05/04 15:07:07;;;;;;;205.93;181.57;;;22.40;59.20;;;;;;4733481;55;21509;-38
2023/05/04 15:12:08;;;;;;;198.95;175.82;;;22.40;59.20;;;;;;4808457;55;21513;-32
2023/05/04 15:17:13;;;;;;;187.68;159.95;;;22.40;59.20;;;;;;4717998;56;21481;-37
2023/05/04 15:22:14;;;;;;;201.70;178.73;;;22.40;59.10;;;;;;4763183;55;21047;-27
2023/05/04 15:27:15;;;;;;;196.23;174.52;;;22.40;59.10;;;;;;4825506;55;21023;-31
2023/05/04 15:32:15;;;;;;;190.12;163.87;;;22.40;59.10;;;;;;4841098;55;21063;-26
2023/05/04 15:37:16;;;;;;;188.32;159.75;;;22.40;59.10;;;;;;4717863;59;21019;-23
2023/05/04 15:42:17;;;;;;;189.90;167.45;;;22.40;59.10;;;;;;4718283;55;21125;-30
2023/05/04 15:47:18;;;;;;;177.38;156.73;;;22.40;59.00;;;;;;4730595;55;21476;-35
2023/05/04 15:52:19;;;;;;;179.73;155.37;;;22.40;59.00;;;;;;4729500;55;21026;-26
2023/05/04 15:57:20;;;;;;;182.60;160.27;;;22.40;58.90;;;;;;4765026;55;21031;-34
2023/05/04 16:02:21;;;;;;;181.93;159.55;;;22.40;58.90;;;;;;4729819;55;21540;-30
2023/05/04 16:07:22;;;;;;;180.77;155.30;;;22.40;58.90;;;;;;4718440;59;21470;-27
2023/05/04 16:12:24;;;;;;;180.93;157.18;;;22.40;58.90;;;;;;4753958;55;21548;-25
2023/05/04 16:17:27;;;;;;;177.62;157.52;;;22.40;58.80;;;;;;4718112;59;21498;-36
2023/05/04 16:22:29;;;;;;;166.77;142.62;;;22.40;58.80;;;;;;4800360;55;21473;-36
2023/05/04 16:27:29;;;;;;;173.07;149.68;;;22.30;58.70;;;;;;4788971;55;21660;-31
2023/05/04 16:32:30;;;;;;;171.95;150.12;;;22.40;58.70;;;;;;4718259;59;21134;-34
2023/05/04 16:37:35;;;;;;;166.23;143.93;;;22.40;58.70;;;;;;4719614;55;21470;-30
2023/05/04 16:42:36;;;;;;;166.32;145.98;;;22.40;58.70;;;;;;4735289;55;21573;-34
2023/05/04 16:47:37;;;;;;;172.82;149.65;;;22.40;58.70;;;;;;4716911;59;21087;-29
2023/05/04 16:52:38;;;;;;;165.75;145.15;;;22.40;58.70;;;;;;4801901;55;21019;-27
2023/05/04 16:57:40;;;;;;;163.12;145.12;;;22.30;58.60;;;;;;4741819;55;21594;-30
2023/05/04 17:02:41;;;;;;;160.90;143.23;;;22.40;58.60;;;;;;4718088;59;21075;-39
2023/05/04 17:07:42;;;;;;;156.43;139.00;;;22.40;58.60;;;;;;4717928;59;21011;-38
2023/05/04 17:12:43;;;;;;;162.62;144.55;;;22.30;58.50;;;;;;4718495;59;21001;-27
2023/05/04 17:17:45;;;;;;;156.10;138.40;;;22.40;58.50;;;;;;4736535;55;21079;-27
2023/05/04 17:22:46;;;;;;;159.15;137.00;;;22.40;58.50;;;;;;4743086;55;21461;-25
2023/05/04 17:27:47;;;;;;;155.48;138.18;;;22.40;58.50;;;;;;4771118;55;21528;-32
2023/05/04 17:32:48;;;;;;;151.15;134.60;;;22.40;58.50;;;;;;4744811;55;21588;-31
2023/05/04 17:37:49;;;;;;;156.30;139.07;;;22.40;58.50;;;;;;4717586;59;21079;-25
2023/05/04 17:42:50;;;;;;;157.07;138.32;;;22.40;58.50;;;;;;4828403;55;21095;-31
2023/05/04 17:47:52;;;;;;;155.70;137.12;;;22.40;58.40;;;;;;4722263;55;21473;-38
2023/05/04 17:52:56;;;;;;;149.12;132.05;;;22.40;58.40;;;;;;4740470;55;21112;-36
2023/05/04 17:57:57;;;;;;;151.73;134.43;;;22.40;58.40;;;;;;4735074;55;21601;-29
2023/05/04 18:02:58;;;;;;;152.18;134.05;;;22.30;58.30;;;;;;4798338;55;21012;-29
2023/05/04 18:07:59;;;;;;;145.15;129.05;;;22.30;58.30;;;;;;4778059;55;21553;-27
2023/05/04 18:13:01;;;;;;;141.62;125.65;;;22.40;58.30;;;;;;4750337;55;21012;-26
2023/05/04 18:18:02;;;;;;;141.62;124.07;;;22.30;58.30;;;;;;4753877;55;21569;-43
2023/05/04 18:23:03;;;;;;;141.60;125.30;;;22.40;58.30;;;;;;4720770;55;21018;-31
2023/05/04 18:28:06;;;;;;;140.52;124.80;;;22.30;58.30;;;;;;4793818;55;21118;-29
2023/05/04 18:33:07;;;;;;;134.25;119.72;;;22.30;58.30;;;;;;4761458;55;21497;-47
2023/05/04 18:38:08;;;;;;;141.95;126.57;;;22.30;58.20;;;;;;4717568;59;21091;-33
2023/05/04 18:43:09;;;;;;;133.65;119.00;;;22.30;58.30;;;;;;4744679;55;21027;-33
2023/05/04 18:48:10;;;;;;;138.77;123.68;;;22.30;58.30;;;;;;4725838;55;21036;-36
2023/05/04 18:53:10;;;;;;;132.05;117.60;;;22.30;58.20;;;;;;4721722;55;21011;-33
2023/05/04 18:58:11;;;;;;;129.35;114.82;;;22.30;58.90;;;;;;4762287;55;21027;-27
2023/05/04 19:03:12;;;;;;;131.73;117.50;;;22.30;58.20;;;;;;4727415;55;20991;-28
2023/05/04 19:08:13;;;;;;;129.90;115.85;;;22.30;58.20;;;;;;4754828;55;21031;-25
2023/05/04 19:13:14;;;;;;;130.55;116.25;;;22.30;58.20;;;;;;4731110;55;21498;-26
2023/05/04 19:18:15;;;;;;;135.18;120.40;;;22.30;58.20;;;;;;4839036;55;21490;-30
2023/05/04 19:23:16;;;;;;;126.35;112.50;;;22.30;58.10;;;;;;4718610;59;21494;-25
2023/05/04 19:28:17;;;;;;;127.87;114.35;;;22.30;58.10;;;;;;4746807;55;21027;-28
2023/05/04 19:33:22;;;;;;;127.93;114.03;;;22.30;58.10;;;;;;4763754;55;21433;-26
2023/05/04 19:38:23;;;;;;;127.25;113.65;;;22.30;58.10;;;;;;4836723;55;21577;-27
2023/05/04 19:43:24;;;;;;;123.62;110.45;;;22.30;58.10;;;;;;4761294;55;21380;-31
2023/05/04 19:48:25;;;;;;;124.70;111.22;;;22.30;58.10;;;;;;4724787;55;21475;-35
2023/05/04 19:53:29;;;;;;;122.37;109.37;;;22.30;58.00;;;;;;4718544;59;20999;-25
2023/05/04 19:58:30;;;;;;;117.32;104.22;;;22.30;58.00;;;;;;4736721;55;21588;-34
2023/05/04 20:03:31;;;;;;;117.72;104.93;;;22.30;57.90;;;;;;4718485;59;21087;-39
2023/05/04 20:08:32;;;;;;;118.75;105.85;;;22.30;58.00;;;;;;4718482;59;21045;-32
2023/05/04 20:13:33;;;;;;;115.30;103.00;;;22.30;57.90;;;;;;4719188;56;21023;-30
2023/05/04 20:18:34;;;;;;;116.60;103.87;;;22.30;57.90;;;;;;4728598;55;20975;-23
2023/05/04 20:23:37;;;;;;;114.05;101.78;;;22.30;57.90;;;;;;4819603;55;21511;-34
2023/05/04 20:28:38;;;;;;;110.18;98.47;;;22.20;57.80;;;;;;4756473;55;21549;-30
2023/05/04 20:33:39;;;;;;;112.40;100.43;;;22.20;57.80;;;;;;4718792;59;21019;-28
2023/05/04 20:38:40;;;;;;;108.70;96.75;;;22.30;57.70;;;;;;4767039;55;21403;-26
2023/05/04 20:43:41;;;;;;;102.18;91.10;;;22.20;57.60;;;;;;4740953;55;21553;-27
2023/05/04 20:48:42;;;;;;;107.47;95.65;;;22.30;57.70;;;;;;4812956;55;21055;-33
2023/05/04 20:53:43;;;;;;;104.07;92.37;;;22.20;57.50;;;;;;4743857;55;22246;-32
2023/05/04 20:58:44;;;;;;;104.57;92.97;;;22.20;57.60;;;;;;4756391;55;21036;-33
2023/05/04 21:03:44;;;;;;;98.25;87.50;;;22.20;57.50;;;;;;4718413;59;21019;-33
2023/05/04 21:08:45;;;;;;;98.37;87.95;;;22.20;57.50;;;;;;4770022;55;21083;-29
2023/05/04 21:13:46;;;;;;;99.65;89.05;;;22.20;57.40;;;;;;4733526;55;21103;-26
2023/05/04 21:18:47;;;;;;;101.95;91.20;;;22.20;57.40;;;;;;4733956;55;21477;-26
2023/05/04 21:23:48;;;;;;;91.55;81.55;;;22.20;57.40;;;;;;4779337;55;21051;-33
2023/05/04 21:28:50;;;;;;;91.40;81.00;;;22.20;57.30;;;;;;4735604;55;21796;-28
2023/05/04 21:33:51;;;;;;;95.28;85.00;;;22.20;57.30;;;;;;4853414;55;21496;-29
2023/05/04 21:38:51;;;;;;;94.65;84.45;;;22.20;57.90;;;;;;4733432;55;21042;-24
2023/05/04 21:43:52;;;;;;;87.37;77.97;;;22.20;57.20;;;;;;4736976;55;21027;-26
2023/05/04 21:48:53;;;;;;;92.00;81.97;;;22.20;57.20;;;;;;4730580;55;21466;-29
2023/05/04 21:53:54;;;;;;;89.72;80.00;;;22.20;57.10;;;;;;4718258;56;21058;-28
2023/05/04 21:58:55;;;;;;;81.60;72.68;;;22.20;57.20;;;;;;4726714;55;21047;-28
2023/05/04 22:03:56;;;;;;;81.80;72.05;;;22.20;57.10;;;;;;4863986;55;21024;-30
2023/05/04 22:08:56;;;;;;;85.15;75.95;;;22.20;57.00;;;;;;4718556;59;21055;-38
2023/05/04 22:13:57;;;;;;;81.95;73.00;;;22.20;57.00;;;;;;4719587;55;21106;-40
2023/05/04 22:18:58;;;;;;;80.32;71.65;;;22.20;57.10;;;;;;4756675;55;21039;-27
2023/05/04 22:23:59;;;;;;;83.40;74.40;;;22.20;57.00;;;;;;4757890;55;21662;-30
2023/05/04 22:29:00;;;;;;;79.22;70.62;;;22.20;57.00;;;;;;4755589;55;21079;-23
2023/05/04 22:34:01;;;;;;;77.75;69.25;;;22.20;57.60;;;;;;4718298;59;21007;-29
2023/05/04 22:39:02;;;;;;;78.57;69.95;;;22.20;56.90;;;;;;4749155;55;21095;-28
2023/05/04 22:44:03;;;;;;;79.47;70.97;;;22.20;57.30;;;;;;4729707;55;21509;-31
2023/05/04 22:49:04;;;;;;;74.25;66.25;;;22.20;56.80;;;;;;4792926;55;21501;-26
2023/05/04 22:54:05;;;;;;;73.30;64.82;;;22.20;56.80;;;;;;4718257;59;21000;-25
2023/05/04 22:59:06;;;;;;;75.25;67.05;;;22.20;56.70;;;;;;4794767;55;21056;-23
2023/05/04 23:04:06;;;;;;;72.57;64.57;;;22.20;56.70;;;;;;4741265;55;21083;-25
2023/05/04 23:09:08;;;;;;;74.57;65.10;;;22.20;56.80;;;;;;4794307;55;21038;-30
2023/05/04 23:14:10;;;;;;;68.85;61.35;;;22.20;56.60;;;;;;4771748;55;21534;-27
2023/05/04 23:19:11;;;;;;;69.60;62.00;;;22.20;56.60;;;;;;4742432;55;21027;-32
2023/05/04 23:24:12;;;;;;;68.80;61.33;;;22.20;56.60;;;;;;4717881;57;21040;-27
2023/05/04 23:29:12;;;;;;;67.20;59.90;;;22.10;56.60;;;;;;4778110;55;21031;-27
2023/05/04 23:34:13;;;;;;;65.82;58.70;;;22.10;56.50;;;;;;4718141;59;21023;-30
2023/05/04 23:39:14;;;;;;;64.22;56.95;;;22.10;56.50;;;;;;4837591;55;21019;-34
2023/05/04 23:44:20;;;;;;;65.40;58.50;;;22.10;56.40;;;;;;4869292;55;21038;-28
2023/05/04 23:49:20;;;;;;;63.80;56.88;;;22.10;56.40;;;;;;4807444;55;22238;-27
2023/05/04 23:54:21;;;;;;;63.22;56.60;;;22.10;56.40;;;;;;4761721;55;21031;-29
2023/05/04 23:59:22;;;;;;;64.03;56.97;;;22.10;56.40;;;;;;4759195;55;21011;-30
